Time;durP1;ratioP1;P1;durP2;ratioP2;P2;SDS_P1;SDS_P2;PMS_P1;PMS_P2;Temp;Humidity;BMP_temperature;BMP_pressure;BME280_temperature;BME280_humidity;BME280_pressure;Samples;Min_cycle;Max_cycle;Signal;HPM_P1;HPM_P2
2023/03/24 00:02:19;;;;;;;7.60;2.95;;;;;;;;;;5024164;28;20561;-60
2023/03/24 00:04:51;;;;;;;4.65;2.65;;;;;;;;;;5012364;28;20049;-60
2023/03/24 00:07:18;;;;;;;5.25;2.85;;;;;;;;;;5021276;28;20033;-61
2023/03/24 00:09:44;;;;;;;5.43;2.90;;;;;;;;;;5026802;28;20033;-61
2023/03/24 00:12:12;;;;;;;8.73;3.15;;;;;;;;;;5027729;28;20041;-61
2023/03/24 00:14:38;;;;;;;5.30;2.63;;;;;;;;;;5028602;28;20026;-60
2023/03/24 00:17:16;;;;;;;5.47;3.08;;;;;;;;;;5020507;28;20100;-60
2023/03/24 00:19:43;;;;;;;8.05;3.10;;;;;;;;;;5025263;28;20040;-61
2023/03/24 00:22:13;;;;;;;7.57;3.03;;;;;;;;;;5025419;28;20113;-61
2023/03/24 00:24:40;;;;;;;4.70;2.65;;;;;;;;;;5028445;28;20110;-61
2023/03/24 00:27:06;;;;;;;6.03;2.70;;;;;;;;;;5029942;28;20048;-60
2023/03/24 00:29:32;;;;;;;5.53;2.70;;;;;;;;;;5029041;28;20029;-62
2023/03/24 00:31:58;;;;;;;6.82;3.17;;;;;;;;;;5030643;28;20087;-62
2023/03/24 00:34:24;;;;;;;6.13;2.70;;;;;;;;;;5028925;28;20041;-62
2023/03/24 00:36:50;;;;;;;6.72;2.60;;;;;;;;;;5029963;28;20498;-62
2023/03/24 00:39:19;;;;;;;4.40;2.63;;;;;;;;;;5016281;28;20026;-62
2023/03/24 00:41:47;;;;;;;6.75;3.15;;;;;;;;;;5016951;28;20079;-62
2023/03/24 00:44:17;;;;;;;4.75;2.90;;;;;;;;;;5021972;28;20053;-61
2023/03/24 00:46:44;;;;;;;6.60;3.25;;;;;;;;;;5011263;28;20036;-61
2023/03/24 00:49:12;;;;;;;5.55;2.60;;;;;;;;;;5022493;28;20120;-61
2023/03/24 00:51:39;;;;;;;6.63;2.90;;;;;;;;;;5021599;28;20029;-61
2023/03/24 00:54:06;;;;;;;5.72;3.08;;;;;;;;;;5017257;28;20052;-61
2023/03/24 00:56:34;;;;;;;3.78;2.47;;;;;;;;;;5013500;28;20040;-62
2023/03/24 00:59:01;;;;;;;7.78;2.88;;;;;;;;;;5011498;28;20034;-62
2023/03/24 01:01:32;;;;;;;3.92;2.20;;;;;;;;;;5010690;28;20053;-62
2023/03/24 01:03:58;;;;;;;4.85;2.88;;;;;;;;;;5022068;28;20053;-62
2023/03/24 01:06:25;;;;;;;4.53;2.60;;;;;;;;;;5044478;28;20430;-62
2023/03/24 01:08:52;;;;;;;6.32;2.90;;;;;;;;;;5025598;28;20026;-62
2023/03/24 01:11:23;;;;;;;7.30;3.00;;;;;;;;;;5011661;28;20096;-61
2023/03/24 01:13:50;;;;;;;6.32;2.80;;;;;;;;;;5013215;28;20077;-61
2023/03/24 01:16:15;;;;;;;4.50;2.67;;;;;;;;;;5031520;28;20042;-62
2023/03/24 01:18:41;;;;;;;4.38;2.65;;;;;;;;;;5038164;28;20041;-63
2023/03/24 01:21:09;;;;;;;6.38;2.65;;;;;;;;;;5045736;28;20036;-62
2023/03/24 01:23:36;;;;;;;3.28;2.10;;;;;;;;;;5020472;28;20045;-62
2023/03/24 01:26:06;;;;;;;4.68;2.60;;;;;;;;;;5011171;28;20034;-61
2023/03/24 01:28:32;;;;;;;8.05;2.88;;;;;;;;;;5010090;28;20486;-61
2023/03/24 01:30:58;;;;;;;5.53;2.50;;;;;;;;;;5014997;28;20096;-61
2023/03/24 01:33:23;;;;;;;4.32;2.58;;;;;;;;;;5014560;28;20030;-61
2023/03/24 01:35:49;;;;;;;8.32;3.00;;;;;;;;;;5016308;28;20127;-61
2023/03/24 01:38:14;;;;;;;5.07;3.20;;;;;;;;;;5025481;28;20530;-62
2023/03/24 01:40:43;;;;;;;4.40;2.45;;;;;;;;;;5016491;28;20652;-61
2023/03/24 01:43:18;;;;;;;7.20;2.70;;;;;;;;;;5016138;28;20037;-62
2023/03/24 01:45:56;;;;;;;5.30;2.35;;;;;;;;;;5029867;28;20489;-62
2023/03/24 01:48:40;;;;;;;5.25;3.00;;;;;;;;;;5016491;28;20044;-61
2023/03/24 01:51:08;;;;;;;4.63;2.85;;;;;;;;;;5023804;28;20091;-62
2023/03/24 01:53:36;;;;;;;5.50;2.78;;;;;;;;;;5045608;28;20041;-62
2023/03/24 01:56:02;;;;;;;5.38;3.15;;;;;;;;;;5032888;28;20091;-62
2023/03/24 01:58:31;;;;;;;5.07;2.90;;;;;;;;;;5037745;28;20048;-62
2023/03/24 02:00:56;;;;;;;5.93;3.20;;;;;;;;;;5043481;28;20030;-62
2023/03/24 02:03:25;;;;;;;5.40;3.10;;;;;;;;;;5030204;28;20036;-60
2023/03/24 02:05:53;;;;;;;4.90;3.15;;;;;;;;;;5052953;28;20401;-62
2023/03/24 02:08:37;;;;;;;5.13;2.90;;;;;;;;;;5047489;28;20489;-62
2023/03/24 02:11:03;;;;;;;5.40;3.22;;;;;;;;;;5024408;28;20037;-62
2023/03/24 02:13:29;;;;;;;5.80;3.40;;;;;;;;;;5018320;28;20033;-60
2023/03/24 02:16:24;;;;;;;4.70;3.08;;;;;;;;;;5025432;28;20092;-61
2023/03/24 02:19:37;;;;;;;5.55;3.08;;;;;;;;;;5021944;28;20033;-61
2023/03/24 02:22:21;;;;;;;5.53;3.17;;;;;;;;;;5031903;28;20516;-61
2023/03/24 02:25:26;;;;;;;5.45;2.97;;;;;;;;;;5040755;28;20029;-61
2023/03/24 02:28:18;;;;;;;6.03;3.28;;;;;;;;;;5024815;28;20037;-62
2023/03/24 02:31:05;;;;;;;4.32;2.90;;;;;;;;;;5023141;28;20120;-62
2023/03/24 02:33:34;;;;;;;5.68;3.20;;;;;;;;;;5031029;28;20033;-63
2023/03/24 02:36:32;;;;;;;5.97;3.42;;;;;;;;;;5020271;28;20030;-62
2023/03/24 02:39:36;;;;;;;10.38;3.95;;;;;;;;;;5013464;28;20045;-62
2023/03/24 02:42:22;;;;;;;6.63;3.95;;;;;;;;;;5016407;28;20030;-61
2023/03/24 02:44:56;;;;;;;7.03;3.95;;;;;;;;;;5012772;28;20034;-62
2023/03/24 02:47:35;;;;;;;6.57;3.78;;;;;;;;;;5029321;28;20500;-62
2023/03/24 02:50:25;;;;;;;6.40;3.70;;;;;;;;;;5026498;28;20026;-62
2023/03/24 02:53:16;;;;;;;7.60;3.75;;;;;;;;;;5013816;28;20478;-61
2023/03/24 02:56:28;;;;;;;9.02;3.40;;;;;;;;;;5012409;28;20076;-61
2023/03/24 02:59:19;;;;;;;6.25;3.55;;;;;;;;;;5006897;28;20144;-62
2023/03/24 03:02:27;;;;;;;6.00;3.22;;;;;;;;;;5010504;28;20103;-61
2023/03/24 03:05:04;;;;;;;6.38;3.47;;;;;;;;;;5027573;28;20098;-62
2023/03/24 03:07:32;;;;;;;5.88;3.88;;;;;;;;;;5032293;28;20064;-62
2023/03/24 03:10:38;;;;;;;5.93;3.72;;;;;;;;;;5030514;28;20049;-62
2023/03/24 03:13:21;;;;;;;7.15;4.13;;;;;;;;;;5012624;28;20045;-62
2023/03/24 03:15:52;;;;;;;7.95;3.42;;;;;;;;;;5018914;28;20657;-61
2023/03/24 03:18:32;;;;;;;4.95;3.30;;;;;;;;;;5048071;28;20116;-62
2023/03/24 03:21:03;;;;;;;6.40;3.57;;;;;;;;;;5043086;28;20033;-61
2023/03/24 03:23:53;;;;;;;6.75;3.38;;;;;;;;;;5012630;28;20281;-61
2023/03/24 03:26:22;;;;;;;6.40;3.90;;;;;;;;;;5014024;28;20081;-61
2023/03/24 03:28:56;;;;;;;4.97;3.50;;;;;;;;;;5032273;28;20240;-61
2023/03/24 03:31:28;;;;;;;5.90;3.22;;;;;;;;;;5023724;28;20482;-61
2023/03/24 03:34:03;;;;;;;5.72;3.65;;;;;;;;;;5023542;28;20120;-61
2023/03/24 03:36:34;;;;;;;4.97;3.33;;;;;;;;;;5025704;28;20041;-61
2023/03/24 03:39:27;;;;;;;5.40;3.65;;;;;;;;;;5016839;28;20038;-61
2023/03/24 03:41:53;;;;;;;6.28;3.53;;;;;;;;;;5036399;28;20087;-61
2023/03/24 03:44:18;;;;;;;5.32;3.60;;;;;;;;;;5032396;28;20046;-61
2023/03/24 03:46:44;;;;;;;5.70;3.70;;;;;;;;;;5038332;28;20037;-61
2023/03/24 03:49:09;;;;;;;7.05;3.60;;;;;;;;;;5011824;28;20034;-62
2023/03/24 03:51:35;;;;;;;7.68;3.60;;;;;;;;;;5023635;28;20406;-61
2023/03/24 03:54:10;;;;;;;5.45;3.40;;;;;;;;;;5029094;28;20037;-61
2023/03/24 03:56:37;;;;;;;8.27;3.70;;;;;;;;;;5011021;28;20541;-61
2023/03/24 03:59:05;;;;;;;6.03;3.50;;;;;;;;;;5026080;28;20631;-61
2023/03/24 04:01:35;;;;;;;5.18;2.90;;;;;;;;;;5017395;28;20359;-61
2023/03/24 04:04:25;;;;;;;4.53;3.17;;;;;;;;;;5029898;28;20053;-62
2023/03/24 04:07:18;;;;;;;6.40;3.20;;;;;;;;;;5015448;28;20030;-61
2023/03/24 04:09:54;;;;;;;6.25;3.00;;;;;;;;;;5011254;28;20040;-62
2023/03/24 04:12:25;;;;;;;4.70;2.80;;;;;;;;;;5013004;28;20026;-61
2023/03/24 04:15:20;;;;;;;3.88;2.30;;;;;;;;;;5011046;28;20109;-61
2023/03/24 04:18:07;;;;;;;4.03;2.40;;;;;;;;;;5009918;28;20053;-61
2023/03/24 04:20:45;;;;;;;4.28;2.58;;;;;;;;;;5010736;28;20425;-61
2023/03/24 04:23:43;;;;;;;3.20;2.20;;;;;;;;;;5036693;28;20034;-62
2023/03/24 04:26:34;;;;;;;3.85;2.53;;;;;;;;;;5016433;28;20030;-61
2023/03/24 04:29:32;;;;;;;5.00;2.83;;;;;;;;;;5017239;28;20041;-61
2023/03/24 04:32:13;;;;;;;3.65;2.50;;;;;;;;;;5007621;28;20409;-62
2023/03/24 04:34:40;;;;;;;;;;;;;;;;;;5027979;28;20076;-62
2023/03/24 04:37:11;;;;;;;3.83;2.58;;;;;;;;;;5030867;28;20040;-63
2023/03/24 04:39:39;;;;;;;3.70;2.55;;;;;;;;;;5041601;28;20163;-61
2023/03/24 04:42:09;;;;;;;3.85;2.55;;;;;;;;;;5027865;28;20385;-61
2023/03/24 04:44:35;;;;;;;3.40;2.40;;;;;;;;;;5020399;28;20038;-62
2023/03/24 04:47:03;;;;;;;4.78;3.00;;;;;;;;;;5011942;28;20041;-63
2023/03/24 04:49:28;;;;;;;5.60;2.58;;;;;;;;;;5033247;28;20159;-62
2023/03/24 04:51:54;;;;;;;3.38;1.92;;;;;;;;;;5029907;28;20119;-62
2023/03/24 04:54:21;;;;;;;3.72;2.00;;;;;;;;;;5012392;28;20031;-63
2023/03/24 04:56:56;;;;;;;4.47;2.15;;;;;;;;;;5011328;28;20041;-62
2023/03/24 04:59:21;;;;;;;5.72;2.35;;;;;;;;;;5014444;28;20121;-62
2023/03/24 05:01:50;;;;;;;2.88;1.95;;;;;;;;;;5029010;28;20470;-62
2023/03/24 05:04:21;;;;;;;3.30;1.95;;;;;;;;;;5043961;28;20033;-62
2023/03/24 05:06:48;;;;;;;3.00;2.08;;;;;;;;;;5051879;28;20136;-63
2023/03/24 05:09:16;;;;;;;4.88;2.10;;;;;;;;;;5040972;28;20432;-62
2023/03/24 05:11:42;;;;;;;3.80;2.35;;;;;;;;;;5037497;28;20033;-62
2023/03/24 05:14:08;;;;;;;4.22;2.67;;;;;;;;;;5035575;28;20095;-62
2023/03/24 05:16:33;;;;;;;2.25;1.65;;;;;;;;;;5034001;28;20072;-62
2023/03/24 05:18:59;;;;;;;2.97;1.90;;;;;;;;;;5051754;28;20037;-62
2023/03/24 05:21:25;;;;;;;3.67;2.10;;;;;;;;;;5025257;28;20381;-62
2023/03/24 05:23:50;;;;;;;2.58;1.70;;;;;;;;;;5014920;28;20033;-63
2023/03/24 05:26:15;;;;;;;2.35;1.77;;;;;;;;;;5026040;28;20045;-61
2023/03/24 05:28:41;;;;;;;2.47;1.50;;;;;;;;;;5034188;28;20026;-62
2023/03/24 05:31:06;;;;;;;4.28;1.35;;;;;;;;;;5045319;28;20045;-62
2023/03/24 05:33:31;;;;;;;2.03;1.17;;;;;;;;;;5054276;28;20033;-61
2023/03/24 05:35:57;;;;;;;2.35;1.30;;;;;;;;;;5049508;28;20385;-61
2023/03/24 05:38:22;;;;;;;3.28;1.40;;;;;;;;;;5035879;28;20041;-61
2023/03/24 05:40:48;;;;;;;2.83;1.50;;;;;;;;;;5032859;28;20032;-61
2023/03/24 05:43:14;;;;;;;2.53;1.42;;;;;;;;;;5021367;28;20101;-61
2023/03/24 05:45:40;;;;;;;2.70;1.60;;;;;;;;;;5014993;28;20518;-60
2023/03/24 05:48:05;;;;;;;4.32;1.80;;;;;;;;;;5026730;28;20164;-60
2023/03/24 05:50:31;;;;;;;3.45;1.70;;;;;;;;;;5034639;28;20159;-61
2023/03/24 05:52:57;;;;;;;4.50;1.70;;;;;;;;;;5033828;28;20095;-61
2023/03/24 05:55:22;;;;;;;2.58;1.48;;;;;;;;;;5034486;28;20108;-60
2023/03/24 05:57:48;;;;;;;2.47;1.92;;;;;;;;;;5033517;28;20143;-61
2023/03/24 06:00:16;;;;;;;7.20;2.40;;;;;;;;;;5033642;28;20547;-60
2023/03/24 06:02:45;;;;;;;5.47;2.58;;;;;;;;;;5047710;28;20029;-60
2023/03/24 06:05:11;;;;;;;7.00;2.53;;;;;;;;;;5033176;28;20056;-61
2023/03/24 06:07:41;;;;;;;3.67;2.50;;;;;;;;;;5017255;28;20445;-60
2023/03/24 06:10:08;;;;;;;4.75;1.92;;;;;;;;;;5037494;28;20390;-61
2023/03/24 06:12:34;;;;;;;6.05;2.20;;;;;;;;;;5014756;28;20050;-62
2023/03/24 06:15:00;;;;;;;3.72;2.05;;;;;;;;;;5024020;28;20075;-63
2023/03/24 06:17:28;;;;;;;4.68;2.13;;;;;;;;;;5035189;28;20033;-63
2023/03/24 06:20:02;;;;;;;6.32;2.50;;;;;;;;;;5033235;28;20064;-63
2023/03/24 06:22:29;;;;;;;4.43;2.45;;;;;;;;;;5052166;28;20079;-63
2023/03/24 06:24:57;;;;;;;9.25;2.78;;;;;;;;;;5042489;28;20136;-63
2023/03/24 06:27:28;;;;;;;4.72;2.08;;;;;;;;;;5033400;28;20075;-64
2023/03/24 06:29:57;;;;;;;4.78;2.35;;;;;;;;;;5031899;28;20049;-66
2023/03/24 06:32:23;;;;;;;6.03;2.40;;;;;;;;;;5015335;28;20037;-63
2023/03/24 06:34:48;;;;;;;5.38;2.72;;;;;;;;;;5015598;28;20030;-64
2023/03/24 06:37:14;;;;;;;6.40;2.72;;;;;;;;;;5032902;28;20032;-65
2023/03/24 06:39:39;;;;;;;4.07;1.92;;;;;;;;;;5033316;28;20037;-64
2023/03/24 06:42:05;;;;;;;8.48;3.10;;;;;;;;;;5035811;28;20033;-64
2023/03/24 06:44:31;;;;;;;4.93;2.55;;;;;;;;;;5027484;28;20463;-62
2023/03/24 06:46:56;;;;;;;5.97;2.10;;;;;;;;;;5026670;28;20030;-63
2023/03/24 06:49:22;;;;;;;4.30;2.00;;;;;;;;;;5029235;28;20116;-64
2023/03/24 06:51:48;;;;;;;6.30;1.85;;;;;;;;;;5022493;28;20049;-64
2023/03/24 06:54:13;;;;;;;8.93;2.63;;;;;;;;;;5027015;28;20103;-64
2023/03/24 06:56:39;;;;;;;6.82;2.10;;;;;;;;;;5039978;28;20152;-65
2023/03/24 06:59:04;;;;;;;7.45;2.30;;;;;;;;;;5014587;28;20046;-66
2023/03/24 07:01:31;;;;;;;5.88;1.60;;;;;;;;;;5024035;28;20481;-65
2023/03/24 07:03:56;;;;;;;6.70;2.00;;;;;;;;;;5032741;28;20040;-67
2023/03/24 07:06:22;;;;;;;8.25;2.25;;;;;;;;;;5029955;28;20045;-68
2023/03/24 07:08:49;;;;;;;8.55;2.10;;;;;;;;;;5040181;28;20029;-68
2023/03/24 07:11:15;;;;;;;7.35;1.75;;;;;;;;;;5038007;28;20110;-65
2023/03/24 07:13:40;;;;;;;11.40;2.20;;;;;;;;;;5012960;28;20591;-65
2023/03/24 07:16:07;;;;;;;8.27;2.17;;;;;;;;;;5015407;28;20046;-66
2023/03/24 07:18:33;;;;;;;5.53;1.52;;;;;;;;;;5013351;28;20030;-67
2023/03/24 07:20:58;;;;;;;6.97;2.10;;;;;;;;;;5016770;28;20090;-68
2023/03/24 07:23:26;;;;;;;7.28;1.80;;;;;;;;;;5033169;28;20030;-67
2023/03/24 07:25:52;;;;;;;6.40;1.92;;;;;;;;;;5032405;28;20033;-67
2023/03/24 07:28:17;;;;;;;5.53;1.83;;;;;;;;;;5030884;28;20187;-67
2023/03/24 07:30:43;;;;;;;2.13;1.25;;;;;;;;;;5033612;28;20026;-64
2023/03/24 07:33:11;;;;;;;6.97;2.13;;;;;;;;;;5032809;28;20035;-66
2023/03/24 07:35:38;;;;;;;6.55;1.73;;;;;;;;;;5040208;28;20091;-68
2023/03/24 07:38:04;;;;;;;6.70;1.75;;;;;;;;;;5034349;28;20030;-63
2023/03/24 07:40:29;;;;;;;4.90;1.60;;;;;;;;;;5048841;28;20045;-68
2023/03/24 07:42:59;;;;;;;7.60;1.90;;;;;;;;;;5049739;28;20029;-67
2023/03/24 07:45:24;;;;;;;7.22;1.38;;;;;;;;;;5035961;28;20385;-67
2023/03/24 07:47:50;;;;;;;2.83;1.10;;;;;;;;;;5011729;28;20152;-67
2023/03/24 07:50:16;;;;;;;4.63;1.58;;;;;;;;;;5025262;28;20095;-67
2023/03/24 07:52:45;;;;;;;4.90;1.55;;;;;;;;;;5031809;28;20450;-67
2023/03/24 07:55:11;;;;;;;6.60;1.70;;;;;;;;;;5034368;28;20363;-67
2023/03/24 07:57:41;;;;;;;3.83;1.58;;;;;;;;;;5030993;28;20040;-66
2023/03/24 08:00:16;;;;;;;4.53;1.73;;;;;;;;;;5020877;28;20048;-66
2023/03/24 08:02:44;;;;;;;7.80;1.92;;;;;;;;;;5030487;28;20021;-65
2023/03/24 08:05:12;;;;;;;7.35;1.52;;;;;;;;;;5013816;28;20046;-67
2023/03/24 08:07:49;;;;;;;12.05;2.08;;;;;;;;;;5022704;28;20034;-66
2023/03/24 08:10:15;;;;;;;8.85;1.92;;;;;;;;;;5024387;28;20111;-64
2023/03/24 08:12:41;;;;;;;5.43;1.60;;;;;;;;;;5030247;28;20117;-65
2023/03/24 08:15:08;;;;;;;8.07;2.10;;;;;;;;;;5029271;28;20116;-65
2023/03/24 08:17:35;;;;;;;6.82;1.83;;;;;;;;;;5030786;28;20040;-64
2023/03/24 08:20:01;;;;;;;9.13;1.70;;;;;;;;;;5037738;28;20128;-66
2023/03/24 08:22:27;;;;;;;6.90;1.60;;;;;;;;;;5036893;28;20060;-64
2023/03/24 08:24:52;;;;;;;7.50;1.70;;;;;;;;;;5015315;28;20470;-66
2023/03/24 08:27:17;;;;;;;12.00;2.08;;;;;;;;;;5030975;28;20037;-65
2023/03/24 08:29:43;;;;;;;6.45;1.40;;;;;;;;;;5013171;28;20488;-65
2023/03/24 08:32:08;;;;;;;8.18;1.73;;;;;;;;;;5023157;28;20042;-66
2023/03/24 08:34:34;;;;;;;4.03;1.40;;;;;;;;;;5031849;28;20425;-64
2023/03/24 08:37:00;;;;;;;6.95;1.67;;;;;;;;;;5031146;28;20874;-65
2023/03/24 08:39:25;;;;;;;6.55;1.67;;;;;;;;;;5037738;28;20033;-66
2023/03/24 08:41:50;;;;;;;6.93;1.77;;;;;;;;;;5022383;28;20109;-64
2023/03/24 08:44:16;;;;;;;8.70;1.73;;;;;;;;;;5039525;28;20161;-66
2023/03/24 08:46:41;;;;;;;7.22;1.50;;;;;;;;;;5043580;28;20474;-67
2023/03/24 08:49:07;;;;;;;4.05;1.55;;;;;;;;;;5042687;28;20381;-65
2023/03/24 08:51:33;;;;;;;4.93;1.55;;;;;;;;;;5045954;28;20038;-66
2023/03/24 08:54:00;;;;;;;7.20;1.60;;;;;;;;;;5023126;28;20394;-66
2023/03/24 08:56:26;;;;;;;7.97;1.55;;;;;;;;;;5031577;28;20121;-65
2023/03/24 08:58:52;;;;;;;5.78;1.67;;;;;;;;;;5040073;28;20100;-66
2023/03/24 09:01:21;;;;;;;4.82;1.60;;;;;;;;;;5048128;28;20099;-66
2023/03/24 09:03:47;;;;;;;10.00;2.05;;;;;;;;;;5030336;28;20041;-61
2023/03/24 09:06:13;;;;;;;7.05;1.90;;;;;;;;;;5031390;28;20045;-65
2023/03/24 09:08:39;;;;;;;5.55;1.42;;;;;;;;;;5022434;28;20042;-65
2023/03/24 09:11:05;;;;;;;4.82;1.45;;;;;;;;;;5026215;28;20074;-67
2023/03/24 09:13:31;;;;;;;5.55;1.60;;;;;;;;;;5020857;28;20548;-63
2023/03/24 09:16:00;;;;;;;9.18;2.20;;;;;;;;;;5021350;28;20033;-66
2023/03/24 09:18:25;;;;;;;9.50;1.90;;;;;;;;;;5031162;28;20116;-67
2023/03/24 09:20:51;;;;;;;5.85;1.63;;;;;;;;;;5024654;28;20116;-65
2023/03/24 09:23:17;;;;;;;6.25;1.80;;;;;;;;;;5035472;28;20059;-65
2023/03/24 09:25:42;;;;;;;3.92;1.83;;;;;;;;;;5047002;28;20037;-66
2023/03/24 09:28:08;;;;;;;5.78;2.22;;;;;;;;;;5037099;28;20503;-66
2023/03/24 09:30:34;;;;;;;7.40;1.80;;;;;;;;;;5047340;28;20109;-66
2023/03/24 09:32:59;;;;;;;8.60;1.83;;;;;;;;;;5030352;28;20497;-66
2023/03/24 09:35:26;;;;;;;6.43;1.70;;;;;;;;;;5034085;28;20029;-65
2023/03/24 09:37:52;;;;;;;7.22;2.20;;;;;;;;;;5030079;28;20403;-65
2023/03/24 09:40:24;;;;;;;8.55;2.17;;;;;;;;;;5039184;28;20040;-66
2023/03/24 09:43:01;;;;;;;6.40;2.00;;;;;;;;;;5030229;28;20087;-66
2023/03/24 09:45:28;;;;;;;7.53;2.00;;;;;;;;;;5013741;28;20121;-68
2023/03/24 09:48:01;;;;;;;6.80;2.08;;;;;;;;;;5030568;28;20044;-65
2023/03/24 09:50:35;;;;;;;5.68;1.73;;;;;;;;;;5046868;28;20530;-66
2023/03/24 09:53:26;;;;;;;8.18;2.25;;;;;;;;;;5046648;28;20041;-66
2023/03/24 09:55:51;;;;;;;4.82;2.30;;;;;;;;;;5053728;28;20036;-68
2023/03/24 09:58:19;;;;;;;7.20;2.60;;;;;;;;;;5029487;28;20458;-66
2023/03/24 10:00:44;;;;;;;6.68;2.45;;;;;;;;;;5017005;28;20120;-64
2023/03/24 10:03:21;;;;;;;6.25;2.17;;;;;;;;;;5039614;28;20108;-65
2023/03/24 10:05:47;;;;;;;9.15;2.22;;;;;;;;;;5031403;28;20057;-66
2023/03/24 10:08:39;;;;;;;10.10;3.42;;;;;;;;;;5029225;28;20095;-66
2023/03/24 10:11:23;;;;;;;8.57;2.47;;;;;;;;;;5013746;28;20045;-65
2023/03/24 10:14:09;;;;;;;6.93;1.80;;;;;;;;;;5014041;28;20041;-66
2023/03/24 10:16:34;;;;;;;6.57;2.17;;;;;;;;;;5033493;28;20042;-66
2023/03/24 10:19:28;;;;;;;8.55;2.40;;;;;;;;;;5032049;28;20045;-66
2023/03/24 10:22:21;;;;;;;8.68;2.88;;;;;;;;;;5033482;28;20083;-64
2023/03/24 10:25:23;;;;;;;8.93;2.75;;;;;;;;;;5014204;28;20181;-64
2023/03/24 10:28:15;;;;;;;9.43;2.28;;;;;;;;;;5018029;28;20041;-64
2023/03/24 10:30:42;;;;;;;7.32;2.10;;;;;;;;;;5027657;28;20394;-66
2023/03/24 10:33:12;;;;;;;8.70;2.20;;;;;;;;;;5032480;28;20327;-64
2023/03/24 10:36:02;;;;;;;7.68;1.77;;;;;;;;;;5032572;28;20059;-65
2023/03/24 10:38:28;;;;;;;9.35;2.35;;;;;;;;;;5041530;28;20037;-66
2023/03/24 10:40:54;;;;;;;7.85;2.10;;;;;;;;;;5053067;28;20029;-64
2023/03/24 10:43:21;;;;;;;9.25;1.77;;;;;;;;;;5047808;28;20041;-64
2023/03/24 10:45:52;;;;;;;6.32;1.70;;;;;;;;;;5053571;28;20094;-66
2023/03/24 10:49:16;;;;;;;5.00;2.15;;;;;;;;;;5033213;28;20037;-65
2023/03/24 10:51:47;;;;;;;5.55;1.88;;;;;;;;;;5010801;28;20120;-65
2023/03/24 10:54:15;;;;;;;;;;;;;;;;;;5037718;28;20091;-65
2023/03/24 10:56:59;;;;;;;5.63;1.50;;;;;;;;;;5044693;28;19962;-63
2023/03/24 10:59:51;;;;;;;8.35;1.90;;;;;;;;;;5013798;28;20030;-65
2023/03/24 11:02:31;;;;;;;5.50;1.80;;;;;;;;;;5027795;28;20463;-65
2023/03/24 11:05:09;;;;;;;5.93;1.80;;;;;;;;;;5030385;28;20390;-64
2023/03/24 11:07:37;;;;;;;6.97;1.90;;;;;;;;;;5032994;28;20037;-64
2023/03/24 11:10:14;;;;;;;3.90;1.60;;;;;;;;;;5034226;28;20549;-65
2023/03/24 11:13:01;;;;;;;7.63;1.83;;;;;;;;;;5045861;28;20033;-65
2023/03/24 11:15:30;;;;;;;6.53;1.58;;;;;;;;;;5026735;28;20425;-63
2023/03/24 11:17:56;;;;;;;6.68;1.20;;;;;;;;;;5020812;28;20371;-61
2023/03/24 11:20:40;;;;;;;5.32;1.75;;;;;;;;;;5030778;28;20033;-63
2023/03/24 11:23:11;;;;;;;7.35;1.40;;;;;;;;;;5034224;28;20530;-61
2023/03/24 11:25:39;;;;;;;5.03;1.67;;;;;;;;;;5023476;28;20405;-61
2023/03/24 11:28:13;;;;;;;3.45;1.38;;;;;;;;;;5031790;28;20064;-61
2023/03/24 11:30:49;;;;;;;5.22;1.70;;;;;;;;;;5032837;28;20036;-61
2023/03/24 11:33:35;;;;;;;6.60;1.60;;;;;;;;;;5033464;28;20041;-62
2023/03/24 11:36:20;;;;;;;5.85;1.48;;;;;;;;;;5031867;28;20036;-61
2023/03/24 11:39:02;;;;;;;4.25;1.30;;;;;;;;;;5033267;28;20356;-63
2023/03/24 11:41:28;;;;;;;6.95;2.10;;;;;;;;;;5018352;28;20056;-62
2023/03/24 11:44:13;;;;;;;4.97;1.90;;;;;;;;;;5027649;28;20029;-63
2023/03/24 11:46:42;;;;;;;6.88;1.60;;;;;;;;;;5032271;28;20048;-61
2023/03/24 11:49:09;;;;;;;6.80;1.48;;;;;;;;;;5033283;28;20118;-64
2023/03/24 11:51:37;;;;;;;6.28;2.00;;;;;;;;;;5030986;28;20037;-64
2023/03/24 11:54:08;;;;;;;9.45;1.95;;;;;;;;;;5023592;28;20033;-63
2023/03/24 11:56:43;;;;;;;3.75;1.67;;;;;;;;;;5025134;28;20088;-64
2023/03/24 11:59:34;;;;;;;5.95;1.40;;;;;;;;;;5031073;28;20145;-63
2023/03/24 12:02:32;;;;;;;2.72;1.20;;;;;;;;;;5030406;28;20022;-65
2023/03/24 12:05:22;;;;;;;9.27;1.88;;;;;;;;;;5038624;28;20106;-64
2023/03/24 12:08:02;;;;;;;4.70;1.33;;;;;;;;;;5047288;28;20042;-65
2023/03/24 12:10:47;;;;;;;2.42;1.20;;;;;;;;;;5031946;28;20108;-64
2023/03/24 12:13:35;;;;;;;3.67;1.10;;;;;;;;;;5032396;28;20030;-64
2023/03/24 12:16:41;;;;;;;5.22;1.40;;;;;;;;;;5030105;28;20112;-64
2023/03/24 12:19:28;;;;;;;5.28;1.50;;;;;;;;;;5027847;28;20037;-64
2023/03/24 12:22:22;;;;;;;6.55;1.83;;;;;;;;;;5033125;28;20021;-64
2023/03/24 12:25:15;;;;;;;4.93;1.60;;;;;;;;;;5026228;28;20041;-63
2023/03/24 12:27:59;;;;;;;5.88;2.33;;;;;;;;;;5030964;28;20079;-67
2023/03/24 12:30:43;;;;;;;8.00;1.92;;;;;;;;;;5033217;28;20108;-64
2023/03/24 12:33:43;;;;;;;6.88;1.58;;;;;;;;;;5026803;28;20036;-65
2023/03/24 12:36:36;;;;;;;4.40;1.60;;;;;;;;;;5031146;28;20037;-63
2023/03/24 12:39:24;;;;;;;5.78;2.00;;;;;;;;;;5020096;28;20274;-65
2023/03/24 12:41:52;;;;;;;7.50;2.25;;;;;;;;;;5025971;28;20520;-65
2023/03/24 12:44:45;;;;;;;6.53;1.83;;;;;;;;;;5031084;28;20033;-64
2023/03/24 12:47:41;;;;;;;5.90;1.85;;;;;;;;;;5034727;28;20044;-65
2023/03/24 12:50:25;;;;;;;5.95;1.55;;;;;;;;;;5011202;28;20038;-65
2023/03/24 12:53:15;;;;;;;3.95;1.50;;;;;;;;;;5020891;28;20057;-64
2023/03/24 12:56:01;;;;;;;3.38;1.52;;;;;;;;;;5021979;28;20091;-64
2023/03/24 12:58:55;;;;;;;4.47;1.58;;;;;;;;;;5023963;28;20420;-63
2023/03/24 13:01:43;;;;;;;5.05;1.80;;;;;;;;;;5040627;28;20116;-66
2023/03/24 13:04:36;;;;;;;8.60;1.98;;;;;;;;;;5041998;28;20069;-66
2023/03/24 13:07:09;;;;;;;5.75;2.00;;;;;;;;;;5011138;28;20038;-64
2023/03/24 13:10:03;;;;;;;4.57;1.45;;;;;;;;;;5027401;28;20033;-66
2023/03/24 13:13:04;;;;;;;5.63;2.22;;;;;;;;;;5026715;28;20033;-66
2023/03/24 13:15:33;;;;;;;4.05;1.60;;;;;;;;;;5010428;28;20046;-64
2023/03/24 13:18:08;;;;;;;4.68;1.80;;;;;;;;;;5013770;28;20057;-66
2023/03/24 13:21:15;;;;;;;5.35;1.50;;;;;;;;;;5037345;28;20040;-64
2023/03/24 13:23:55;;;;;;;4.20;1.40;;;;;;;;;;5021148;28;20045;-65
2023/03/24 13:26:38;;;;;;;4.82;1.60;;;;;;;;;;5033015;28;20037;-63
2023/03/24 13:29:43;;;;;;;3.75;1.73;;;;;;;;;;5034188;28;20078;-63
2023/03/24 13:32:22;;;;;;;4.78;1.50;;;;;;;;;;5028133;28;20100;-65
2023/03/24 13:35:30;;;;;;;7.30;1.63;;;;;;;;;;5032506;28;20044;-64
2023/03/24 13:38:11;;;;;;;6.20;1.48;;;;;;;;;;5026478;28;20371;-63
2023/03/24 13:40:39;;;;;;;4.97;1.42;;;;;;;;;;5034186;28;20034;-64
2023/03/24 13:43:16;;;;;;;6.97;1.92;;;;;;;;;;5033984;28;20037;-65
2023/03/24 13:45:50;;;;;;;2.75;1.40;;;;;;;;;;5044118;28;20044;-65
2023/03/24 13:48:41;;;;;;;5.80;1.67;;;;;;;;;;5048150;28;20063;-64
2023/03/24 13:51:09;;;;;;;;;;;;;;;;;;5048826;28;20033;-64
2023/03/24 13:53:43;;;;;;;4.53;1.25;;;;;;;;;;5048243;28;20396;-64
2023/03/24 13:56:19;;;;;;;2.85;1.48;;;;;;;;;;5017043;28;20069;-64
2023/03/24 13:59:05;;;;;;;7.45;1.80;;;;;;;;;;5021994;28;20484;-66
2023/03/24 14:01:38;;;;;;;4.50;1.63;;;;;;;;;;5053054;28;20120;-66
2023/03/24 14:04:18;;;;;;;5.70;1.88;;;;;;;;;;5036304;28;20057;-63
2023/03/24 14:06:51;;;;;;;5.88;2.25;;;;;;;;;;5018746;28;20119;-61
2023/03/24 14:09:31;;;;;;;5.75;1.70;;;;;;;;;;5032517;28;20029;-63
2023/03/24 14:12:03;;;;;;;2.90;1.60;;;;;;;;;;5034106;28;20061;-64
2023/03/24 14:14:29;;;;;;;4.97;1.60;;;;;;;;;;5033894;28;20037;-64
2023/03/24 14:17:11;;;;;;;5.03;1.80;;;;;;;;;;5034169;28;20444;-67
2023/03/24 14:20:07;;;;;;;5.10;1.75;;;;;;;;;;5031280;28;20094;-67
2023/03/24 14:22:35;;;;;;;4.47;1.50;;;;;;;;;;5032760;28;20029;-65
2023/03/24 14:25:21;;;;;;;7.15;1.77;;;;;;;;;;5029190;28;20087;-67
2023/03/24 14:27:49;;;;;;;4.97;1.35;;;;;;;;;;5033123;28;20109;-69
2023/03/24 14:30:15;;;;;;;2.83;1.33;;;;;;;;;;5033036;28;20439;-66
2023/03/24 14:32:45;;;;;;;3.58;1.30;;;;;;;;;;5038977;28;20029;-67
2023/03/24 14:35:31;;;;;;;2.35;1.13;;;;;;;;;;5035758;28;20037;-67
2023/03/24 14:38:17;;;;;;;2.55;1.20;;;;;;;;;;5026964;28;20091;-67
2023/03/24 14:40:48;;;;;;;4.90;1.42;;;;;;;;;;5025468;28;20049;-66
2023/03/24 14:43:27;;;;;;;4.57;1.77;;;;;;;;;;5021410;28;20034;-64
2023/03/24 14:46:00;;;;;;;5.78;1.95;;;;;;;;;;5017985;28;20033;-63
2023/03/24 14:49:01;;;;;;;5.15;1.60;;;;;;;;;;5041974;28;20469;-64
2023/03/24 14:51:35;;;;;;;3.65;1.85;;;;;;;;;;5029616;28;20046;-61
2023/03/24 14:54:01;;;;;;;2.83;1.52;;;;;;;;;;5032705;28;20029;-62
2023/03/24 14:56:34;;;;;;;2.78;1.65;;;;;;;;;;5046446;28;20040;-62
2023/03/24 14:59:07;;;;;;;2.78;1.50;;;;;;;;;;5023665;28;20049;-62
2023/03/24 15:01:34;;;;;;;4.97;1.70;;;;;;;;;;5045094;28;20136;-62
2023/03/24 15:04:00;;;;;;;4.95;1.75;;;;;;;;;;5029843;28;20513;-64
2023/03/24 15:06:26;;;;;;;4.20;1.60;;;;;;;;;;5017177;28;20041;-63
2023/03/24 15:08:54;;;;;;;4.93;1.75;;;;;;;;;;5050461;28;21502;-63
2023/03/24 15:11:24;;;;;;;6.35;2.00;;;;;;;;;;5032220;28;20650;-63
2023/03/24 15:13:52;;;;;;;7.35;2.20;;;;;;;;;;5049901;28;20512;-64
2023/03/24 15:16:24;;;;;;;4.40;1.95;;;;;;;;;;5032988;28;20044;-63
2023/03/24 15:18:58;;;;;;;6.00;2.45;;;;;;;;;;5033115;28;20029;-62
2023/03/24 15:21:38;;;;;;;2.80;1.30;;;;;;;;;;5031488;28;20437;-62
2023/03/24 15:24:37;;;;;;;5.77;1.83;;;;;;;;;;5032296;28;20083;-63